Kampeska, South Dakota
Current Conditions -  °F | °C
As of 5:53 AM on Thursday 29 Jan 2015 (Local Time) from KATY Reporting Station
Overcast Overcast  
Wind Chill: 12°   Ceiling: 1300
Heat Index: 27°   Visibility: 10mi
Dew Point: 22°   Wind: 25mph
Humidity: 81%   Direction: 330°NNW
Pressure: 30.23"   Gusts: 31mph
Location:  44.9156°N, 97.1699°W
Report Text: KATY 291153Z AUTO 33022G27KT 10SM OVC013 M03/M06 A3023 RMK AO2 PK WND 34028/1138 SLP258 T10281056 11006 21028 51033 $
Loading
Personal Weather Stations






























Interactive Weather Map New forecast layout! Learn more

10-Day Weather Forecast

Advertisements
Track Severe Weather on mobile